createdAt,value
2018-09-17T00:00:10.234Z,12.04
2018-09-17T00:01:16.468Z,12.13
2018-09-17T00:02:22.722Z,12.24
2018-09-17T00:03:29.020Z,12.21
2018-09-17T00:04:34.981Z,11.95
2018-09-17T00:05:41.200Z,11.99
2018-09-17T00:06:47.413Z,12.06
2018-09-17T00:07:53.674Z,12.28
2018-09-17T00:08:59.655Z,12.49
2018-09-17T00:10:05.008Z,12.41
2018-09-17T00:11:10.952Z,12.43
2018-09-17T00:12:16.937Z,12.39
2018-09-17T00:13:23.187Z,12.38
2018-09-17T00:14:29.652Z,12.40
2018-09-17T00:15:35.969Z,12.47
2018-09-17T00:16:42.726Z,12.59
2018-09-17T00:17:48.714Z,12.60
2018-09-17T00:18:54.956Z,12.56
2018-09-17T00:20:01.161Z,12.34
2018-09-17T00:21:07.401Z,12.31
2018-09-17T00:22:13.375Z,12.37
2018-09-17T00:23:19.333Z,12.54
2018-09-17T00:24:25.575Z,12.64
2018-09-17T00:25:31.806Z,12.46
2018-09-17T00:26:38.067Z,12.38
2018-09-17T00:27:44.361Z,12.66
2018-09-17T00:28:50.618Z,12.96
2018-09-17T00:29:56.888Z,13.05
2018-09-17T00:31:03.103Z,13.04
2018-09-17T00:32:09.361Z,13.10
2018-09-17T00:33:15.615Z,13.08
2018-09-17T00:34:21.850Z,13.04
2018-09-17T00:35:28.096Z,13.04
2018-09-17T00:36:34.321Z,12.91
2018-09-17T00:37:40.588Z,12.79
2018-09-17T00:38:46.827Z,12.76
2018-09-17T00:39:53.069Z,12.58
2018-09-17T00:40:59.290Z,12.36
2018-09-17T00:42:05.496Z,12.26
2018-09-17T00:43:11.774Z,12.40
2018-09-17T00:44:18.017Z,12.76
2018-09-17T00:45:24.296Z,12.75
2018-09-17T00:46:30.528Z,12.56
2018-09-17T00:47:36.785Z,12.52
2018-09-17T00:48:43.001Z,12.41
2018-09-17T00:49:49.224Z,12.44
2018-09-17T00:50:55.169Z,12.50
2018-09-17T00:52:01.484Z,12.45
2018-09-17T00:53:07.796Z,12.33
2018-09-17T00:54:14.069Z,12.30
2018-09-17T00:55:20.291Z,12.32
2018-09-17T00:56:26.552Z,12.27
2018-09-17T00:57:32.847Z,12.27
2018-09-17T00:58:39.122Z,12.29
2018-09-17T00:59:45.356Z,12.25
2018-09-17T01:00:51.392Z,12.24
2018-09-17T01:01:55.993Z,12.26
2018-09-17T01:03:01.973Z,12.44
2018-09-17T01:04:08.198Z,12.49
2018-09-17T01:05:14.428Z,12.51
2018-09-17T01:06:20.787Z,12.51
2018-09-17T01:07:26.734Z,12.48
2018-09-17T01:08:32.982Z,12.25
2018-09-17T01:09:38.700Z,12.25
2018-09-17T01:10:44.941Z,12.30
2018-09-17T01:11:51.837Z,12.28
2018-09-17T01:12:57.804Z,12.20
2018-09-17T01:14:04.056Z,12.24
2018-09-17T01:15:10.309Z,12.25
2018-09-17T01:16:16.524Z,12.16
2018-09-17T01:17:22.515Z,12.13
2018-09-17T01:18:28.771Z,12.08
2018-09-17T01:19:34.710Z,12.11
2018-09-17T01:20:40.961Z,12.06
2018-09-17T01:21:47.201Z,12.00
2018-09-17T01:22:53.224Z,11.98
2018-09-17T01:23:59.449Z,11.99
2018-09-17T01:25:05.344Z,12.09
2018-09-17T01:26:11.621Z,12.14
2018-09-17T01:27:17.911Z,12.06
2018-09-17T01:28:24.149Z,12.22
2018-09-17T01:29:30.384Z,12.11
2018-09-17T01:30:37.269Z,12.08
2018-09-17T01:31:43.642Z,11.98
2018-09-17T01:32:49.896Z,12.08
2018-09-17T01:33:56.158Z,12.25
2018-09-17T01:35:02.453Z,12.39
2018-09-17T01:36:08.676Z,12.45
2018-09-17T01:37:14.288Z,12.36
2018-09-17T01:38:20.337Z,12.16
2018-09-17T01:39:26.805Z,12.18
2018-09-17T01:40:33.060Z,12.29
2018-09-17T01:41:39.041Z,12.31
2018-09-17T01:42:45.037Z,12.19
2018-09-17T01:43:51.302Z,12.01
2018-09-17T01:44:57.523Z,11.91
2018-09-17T01:46:03.578Z,11.86
2018-09-17T01:47:09.975Z,11.89
2018-09-17T01:48:16.290Z,12.20
2018-09-17T01:49:22.557Z,12.27
2018-09-17T01:50:28.795Z,12.30
2018-09-17T01:51:34.667Z,12.33
2018-09-17T01:52:40.630Z,12.36
2018-09-17T01:53:46.888Z,12.32
2018-09-17T01:54:53.117Z,12.19
2018-09-17T01:55:59.324Z,12.09
2018-09-17T01:57:04.952Z,11.85
2018-09-17T01:58:11.216Z,11.60
2018-09-17T01:59:17.259Z,11.48
2018-09-17T02:00:23.150Z,11.44
2018-09-17T02:01:29.383Z,11.43
2018-09-17T02:02:35.613Z,11.41
2018-09-17T02:03:41.869Z,11.49
2018-09-17T02:04:48.117Z,11.49
2018-09-17T02:05:54.348Z,11.64
2018-09-17T02:07:00.593Z,11.61
2018-09-17T02:08:06.906Z,11.42
2018-09-17T02:09:13.350Z,11.56
2018-09-17T02:10:20.718Z,11.74
2018-09-17T02:11:26.984Z,11.56
2018-09-17T02:12:32.900Z,11.31
2018-09-17T02:13:38.921Z,11.29
2018-09-17T02:14:44.900Z,11.21
2018-09-17T02:15:50.833Z,11.33
2018-09-17T02:16:57.050Z,11.09
2018-09-17T02:18:03.314Z,11.17
2018-09-17T02:19:09.580Z,11.14
2018-09-17T02:20:15.811Z,10.90
2018-09-17T02:21:21.821Z,10.94
2018-09-17T02:22:28.030Z,10.90
2018-09-17T02:23:34.266Z,10.86
2018-09-17T02:24:40.296Z,10.80
2018-09-17T02:25:46.539Z,10.83
2018-09-17T02:26:52.776Z,10.86
2018-09-17T02:27:59.012Z,10.84
2018-09-17T02:29:04.565Z,10.81
2018-09-17T02:30:10.156Z,10.84
2018-09-17T02:31:16.136Z,10.82
2018-09-17T02:32:22.422Z,10.79
2018-09-17T02:33:28.661Z,10.80
2018-09-17T02:34:34.919Z,10.78
2018-09-17T02:35:41.153Z,10.78
2018-09-17T02:36:47.132Z,10.80
2018-09-17T02:37:53.414Z,10.78
2018-09-17T02:38:59.659Z,10.79
2018-09-17T02:40:05.043Z,10.85
2018-09-17T02:41:11.051Z,10.83
2018-09-17T02:42:17.008Z,10.87
2018-09-17T02:43:23.236Z,11.05
2018-09-17T02:44:29.224Z,11.20
2018-09-17T02:45:36.528Z,11.24
2018-09-17T02:46:42.767Z,11.20
2018-09-17T02:47:48.978Z,11.06
2018-09-17T02:48:55.179Z,10.90
2018-09-17T02:50:01.431Z,10.87
2018-09-17T02:51:07.668Z,10.79
2018-09-17T02:52:13.900Z,10.75
2018-09-17T02:53:20.145Z,10.89
2018-09-17T02:54:26.412Z,10.89
2018-09-17T02:55:32.657Z,10.80
2018-09-17T02:56:38.640Z,10.66
2018-09-17T02:57:44.899Z,10.53
2018-09-17T02:58:51.132Z,10.45
2018-09-17T02:59:57.387Z,10.35
2018-09-17T03:01:03.657Z,10.33
2018-09-17T03:02:09.868Z,10.27
2018-09-17T03:03:16.147Z,10.13
2018-09-17T03:04:22.406Z,10.12
2018-09-17T03:05:28.409Z,10.12
2018-09-17T03:06:34.656Z,10.14
2018-09-17T03:07:40.881Z,10.15
2018-09-17T03:08:47.121Z,10.17
2018-09-17T03:09:53.370Z,10.28
2018-09-17T03:10:59.649Z,10.32
2018-09-17T03:12:05.589Z,10.44
2018-09-17T03:13:11.821Z,10.63
2018-09-17T03:14:17.431Z,10.83
2018-09-17T03:15:34.524Z,10.98
2018-09-17T03:16:39.814Z,10.87
2018-09-17T03:17:45.806Z,10.60
2018-09-17T03:18:51.684Z,10.47
2018-09-17T03:19:57.933Z,10.41
2018-09-17T03:21:03.874Z,10.34
2018-09-17T03:22:09.464Z,10.30
2018-09-17T03:23:15.435Z,10.24
2018-09-17T03:24:21.773Z,10.20
2018-09-17T03:25:28.158Z,10.15
2018-09-17T03:26:34.097Z,10.14
2018-09-17T03:27:40.033Z,10.14
2018-09-17T03:28:46.290Z,10.20
2018-09-17T03:29:52.588Z,10.25
2018-09-17T03:30:58.846Z,10.36
2018-09-17T03:32:04.782Z,10.36
2018-09-17T03:33:10.998Z,10.36
2018-09-17T03:34:16.937Z,10.50
2018-09-17T03:35:22.558Z,10.54
2018-09-17T03:36:28.444Z,10.38
2018-09-17T03:37:34.329Z,10.27
2018-09-17T03:38:40.230Z,10.32
2018-09-17T03:39:46.495Z,10.34
2018-09-17T03:40:52.494Z,10.34
2018-09-17T03:41:58.731Z,10.36
2018-09-17T03:43:04.969Z,10.24
2018-09-17T03:44:11.237Z,10.14
2018-09-17T03:45:17.498Z,10.24
2018-09-17T03:46:23.736Z,10.27
2018-09-17T03:47:30.040Z,10.27
2018-09-17T03:48:36.297Z,10.27
2018-09-17T03:49:42.533Z,10.29
2018-09-17T03:50:48.788Z,10.17
2018-09-17T03:51:55.036Z,10.14
2018-09-17T03:53:01.254Z,10.06
2018-09-17T03:54:06.828Z,10.01
2018-09-17T03:55:13.077Z,10.06
2018-09-17T03:56:19.313Z,10.00
2018-09-17T03:57:25.544Z,10.03
2018-09-17T03:58:31.901Z,10.01
2018-09-17T03:59:38.126Z,9.96
2018-09-17T04:00:44.369Z,9.84
2018-09-17T04:01:50.625Z,9.75
2018-09-17T04:02:56.825Z,9.64
2018-09-17T04:04:02.741Z,9.64
2018-09-17T04:05:08.631Z,9.61
2018-09-17T04:06:14.908Z,9.54
2018-09-17T04:07:21.189Z,9.57
2018-09-17T04:08:27.349Z,9.43
2018-09-17T04:09:33.554Z,9.45
2018-09-17T04:10:39.850Z,9.42
2018-09-17T04:11:46.079Z,9.51
2018-09-17T04:12:52.273Z,9.60
2018-09-17T04:13:58.485Z,9.65
2018-09-17T04:15:04.331Z,9.64
2018-09-17T04:16:10.592Z,9.60
2018-09-17T04:17:16.817Z,9.56
2018-09-17T04:18:24.066Z,9.52
2018-09-17T04:19:30.294Z,9.48
2018-09-17T04:20:36.540Z,9.43
2018-09-17T04:21:42.748Z,9.48
2018-09-17T04:22:48.953Z,9.52
2018-09-17T04:23:55.190Z,9.56
2018-09-17T04:25:01.100Z,9.53
2018-09-17T04:26:07.052Z,9.62
2018-09-17T04:27:13.261Z,9.61
2018-09-17T04:28:19.473Z,9.59
2018-09-17T04:29:25.443Z,9.58
2018-09-17T04:30:31.908Z,9.54
2018-09-17T04:31:37.914Z,9.43
2018-09-17T04:32:44.355Z,9.37
2018-09-17T04:33:49.924Z,9.38
2018-09-17T04:34:56.141Z,9.40
2018-09-17T04:36:02.398Z,9.43
2018-09-17T04:37:08.720Z,9.42
2018-09-17T04:38:15.949Z,9.39
2018-09-17T04:39:22.000Z,9.42
2018-09-17T04:40:28.392Z,9.40
2018-09-17T04:41:34.543Z,9.41
2018-09-17T04:42:40.501Z,9.44
2018-09-17T04:43:47.094Z,9.36
2018-09-17T04:44:54.267Z,9.35
2018-09-17T04:46:01.546Z,9.48
2018-09-17T04:47:08.654Z,9.43
2018-09-17T04:48:14.615Z,9.40
2018-09-17T04:49:20.896Z,9.50
2018-09-17T04:50:27.113Z,9.54
2018-09-17T04:51:33.345Z,9.64
2018-09-17T04:52:39.304Z,9.60
2018-09-17T04:53:45.380Z,9.48
2018-09-17T04:54:52.662Z,9.43
2018-09-17T04:55:58.942Z,9.27
2018-09-17T04:57:04.917Z,9.17
2018-09-17T04:58:12.040Z,9.17
2018-09-17T04:59:17.980Z,9.20
2018-09-17T05:00:24.199Z,9.22
2018-09-17T05:01:30.422Z,9.34
2018-09-17T05:02:36.640Z,9.41
2018-09-17T05:03:42.866Z,9.35
2018-09-17T05:04:49.990Z,9.40
2018-09-17T05:05:57.196Z,9.35
2018-09-17T05:07:03.438Z,9.31
2018-09-17T05:08:09.662Z,9.29
2018-09-17T05:09:15.897Z,9.33
2018-09-17T05:10:22.095Z,9.51
2018-09-17T05:11:29.262Z,9.49
2018-09-17T05:12:36.133Z,9.48
2018-09-17T05:13:42.325Z,9.66
2018-09-17T05:14:48.319Z,9.64
2018-09-17T05:15:54.268Z,9.75
2018-09-17T05:17:00.508Z,9.78
2018-09-17T05:18:07.644Z,9.83
2018-09-17T05:19:14.800Z,9.93
2018-09-17T05:20:21.957Z,9.98
2018-09-17T05:21:29.104Z,9.94
2018-09-17T05:22:35.333Z,9.88
2018-09-17T05:23:41.572Z,9.87
2018-09-17T05:24:47.823Z,9.82
2018-09-17T05:25:54.048Z,9.76
2018-09-17T05:27:00.290Z,9.70
2018-09-17T05:28:06.524Z,9.59
2018-09-17T05:29:12.811Z,9.79
2018-09-17T05:30:19.052Z,9.87
2018-09-17T05:31:25.316Z,9.90
2018-09-17T05:32:31.640Z,9.96
2018-09-17T05:33:37.869Z,9.90
2018-09-17T05:34:44.085Z,9.82
2018-09-17T05:35:50.337Z,9.82
2018-09-17T05:36:57.461Z,9.82
2018-09-17T05:38:04.330Z,9.88
2018-09-17T05:39:09.916Z,9.87
2018-09-17T05:40:16.835Z,9.92
2018-09-17T05:41:23.831Z,9.95
2018-09-17T05:42:30.220Z,9.99
2018-09-17T05:43:36.222Z,10.01
2018-09-17T05:44:42.200Z,10.03
2018-09-17T05:45:48.513Z,10.12
2018-09-17T05:46:54.958Z,10.15
2018-09-17T05:48:01.177Z,10.19
2018-09-17T05:49:07.410Z,10.22
2018-09-17T05:50:13.740Z,10.27
2018-09-17T05:51:19.697Z,10.28
2018-09-17T05:52:25.669Z,10.31
2018-09-17T05:53:31.623Z,10.37
2018-09-17T05:54:38.451Z,10.43
2018-09-17T05:55:44.688Z,10.48
2018-09-17T05:56:50.972Z,10.50
2018-09-17T05:57:56.940Z,10.55
2018-09-17T05:59:02.926Z,10.58
2018-09-17T06:00:09.532Z,10.74
2018-09-17T06:01:15.762Z,10.95
2018-09-17T06:02:21.766Z,11.05
2018-09-17T06:03:27.765Z,10.98
2018-09-17T06:04:33.709Z,11.00
2018-09-17T06:05:40.017Z,10.91
2018-09-17T06:06:46.191Z,10.97
2018-09-17T06:07:53.307Z,10.92
2018-09-17T06:08:59.530Z,11.09
2018-09-17T06:10:04.891Z,11.17
2018-09-17T06:11:11.130Z,11.28
2018-09-17T06:12:18.026Z,11.38
2018-09-17T06:13:23.996Z,11.34
2018-09-17T06:14:29.974Z,11.44
2018-09-17T06:15:35.938Z,11.47
2018-09-17T06:16:41.894Z,11.39
2018-09-17T06:17:48.198Z,11.51
2018-09-17T06:18:54.417Z,11.56
2018-09-17T06:20:00.693Z,11.65
2018-09-17T06:21:07.305Z,11.74
2018-09-17T06:22:13.281Z,11.90
2018-09-17T06:23:19.357Z,12.03
2018-09-17T06:24:25.508Z,12.09
2018-09-17T06:25:31.765Z,12.22
2018-09-17T06:26:38.023Z,12.46
2018-09-17T06:27:44.440Z,12.60
2018-09-17T06:28:50.483Z,12.62
2018-09-17T06:29:56.897Z,12.70
2018-09-17T06:31:03.610Z,12.62
2018-09-17T06:32:10.522Z,12.65
2018-09-17T06:33:16.875Z,12.60
2018-09-17T06:34:23.014Z,12.69
2018-09-17T06:35:29.203Z,12.84
2018-09-17T06:36:35.285Z,12.86
2018-09-17T06:37:41.875Z,12.89
2018-09-17T06:38:48.301Z,12.96
2018-09-17T06:39:54.578Z,13.13
2018-09-17T06:41:00.520Z,13.22
2018-09-17T06:42:06.686Z,13.14
2018-09-17T06:43:12.989Z,13.15
2018-09-17T06:44:19.245Z,13.11
2018-09-17T06:45:24.897Z,13.18
2018-09-17T06:46:30.858Z,13.27
2018-09-17T06:47:36.824Z,13.56
2018-09-17T06:48:42.766Z,13.70
2018-09-17T06:49:48.751Z,13.77
2018-09-17T06:50:54.735Z,13.89
2018-09-17T06:52:00.972Z,14.00
2018-09-17T06:53:06.920Z,13.99
2018-09-17T06:54:13.164Z,13.96
2018-09-17T06:55:19.335Z,14.05
2018-09-17T06:56:25.426Z,14.08
2018-09-17T06:57:31.741Z,14.27
2018-09-17T06:58:38.041Z,14.32
2018-09-17T06:59:44.208Z,14.43
2018-09-17T07:00:50.567Z,14.52
2018-09-17T07:01:56.684Z,14.54
2018-09-17T07:03:02.818Z,14.44
2018-09-17T07:04:08.998Z,14.60
2018-09-17T07:05:16.022Z,14.60
2018-09-17T07:06:22.425Z,14.67
2018-09-17T07:07:29.047Z,14.65
2018-09-17T07:08:35.552Z,14.79
2018-09-17T07:09:41.889Z,14.87
2018-09-17T07:10:48.036Z,14.85
2018-09-17T07:11:53.828Z,15.01
2018-09-17T07:13:00.572Z,15.10
2018-09-17T07:14:07.077Z,15.09
2018-09-17T07:15:13.417Z,15.01
2018-09-17T07:16:19.893Z,14.98
2018-09-17T07:17:26.373Z,15.07
2018-09-17T07:18:32.479Z,14.95
2018-09-17T07:19:39.715Z,15.11
2018-09-17T07:20:46.298Z,15.14
2018-09-17T07:21:52.532Z,15.28
2018-09-17T07:22:58.498Z,15.23
2018-09-17T07:24:04.594Z,15.27
2018-09-17T07:25:11.001Z,15.40
2018-09-17T07:26:17.094Z,15.61
2018-09-17T07:27:23.497Z,15.56
2018-09-17T07:28:29.777Z,15.45
2018-09-17T07:29:36.110Z,15.69
2018-09-17T07:30:42.465Z,15.82
2018-09-17T07:31:48.528Z,15.66
2018-09-17T07:32:55.272Z,15.58
2018-09-17T07:34:01.222Z,15.75
2018-09-17T07:35:07.470Z,15.84
2018-09-17T07:36:13.531Z,16.01
2018-09-17T07:37:19.629Z,16.05
2018-09-17T07:38:25.614Z,16.22
2018-09-17T07:39:31.853Z,16.30
2018-09-17T07:40:37.790Z,16.41
2018-09-17T07:41:43.794Z,16.64
2018-09-17T07:42:50.006Z,16.73
2018-09-17T07:43:55.992Z,16.76
2018-09-17T07:45:02.242Z,16.79
2018-09-17T07:46:08.213Z,16.76
2018-09-17T07:47:14.200Z,16.77
2018-09-17T07:48:20.161Z,16.92
2018-09-17T07:49:26.256Z,16.89
2018-09-17T07:50:32.370Z,17.02
2018-09-17T07:51:38.807Z,17.22
2018-09-17T07:52:45.069Z,17.30
2018-09-17T07:53:51.698Z,17.30
2018-09-17T07:54:57.652Z,17.30
2018-09-17T07:56:03.602Z,17.30
2018-09-17T07:57:09.854Z,17.48
2018-09-17T07:58:15.786Z,17.53
2018-09-17T07:59:22.022Z,17.61
2018-09-17T08:00:28.090Z,17.77
2018-09-17T08:01:34.345Z,17.77
2018-09-17T08:02:40.728Z,17.68
2018-09-17T08:03:46.868Z,17.77
2018-09-17T08:04:53.210Z,17.91
2018-09-17T08:05:59.253Z,17.95
2018-09-17T08:07:05.143Z,18.03
2018-09-17T08:08:11.291Z,18.06
2018-09-17T08:09:18.618Z,18.26
2018-09-17T08:10:25.048Z,18.41
2018-09-17T08:11:31.166Z,18.54
2018-09-17T08:12:38.426Z,18.58
2018-09-17T08:13:44.543Z,18.45
2018-09-17T08:14:50.628Z,18.43
2018-09-17T08:15:56.573Z,18.58
2018-09-17T08:17:02.323Z,18.84
2018-09-17T08:18:08.742Z,18.79
2018-09-17T08:19:14.973Z,18.71
2018-09-17T08:20:21.237Z,18.70
2018-09-17T08:21:27.488Z,18.94
2018-09-17T08:22:33.711Z,19.03
2018-09-17T08:23:39.937Z,19.13
2018-09-17T08:24:45.932Z,19.11
2018-09-17T08:25:52.157Z,19.21
2018-09-17T08:26:58.395Z,19.29
2018-09-17T08:28:04.270Z,19.42
2018-09-17T08:29:10.501Z,19.47
2018-09-17T08:30:16.770Z,19.32
2018-09-17T08:31:23.098Z,19.30
2018-09-17T08:32:29.524Z,19.22
2018-09-17T08:33:35.552Z,19.21
2018-09-17T08:34:41.524Z,19.43
2018-09-17T08:35:47.482Z,19.52
2018-09-17T08:36:54.865Z,19.73
2018-09-17T08:38:01.081Z,19.89
2018-09-17T08:39:06.345Z,19.92
2018-09-17T08:40:12.618Z,19.96
2018-09-17T08:41:18.662Z,19.96
2018-09-17T08:42:24.899Z,20.14
2018-09-17T08:43:31.169Z,19.99
2018-09-17T08:44:37.420Z,19.84
2018-09-17T08:45:43.705Z,19.97
2018-09-17T08:46:50.102Z,20.00
2018-09-17T08:47:56.330Z,20.14
2018-09-17T08:49:02.285Z,20.27
2018-09-17T08:50:07.932Z,20.52
2018-09-17T08:51:13.654Z,20.60
2018-09-17T08:52:19.981Z,20.75
2018-09-17T08:53:26.368Z,20.77
2018-09-17T08:54:33.279Z,20.84
2018-09-17T08:55:39.300Z,20.90
2018-09-17T08:56:45.248Z,20.92
2018-09-17T08:57:50.973Z,21.07
2018-09-17T08:58:56.688Z,21.17
2018-09-17T09:00:02.356Z,21.26
2018-09-17T09:01:08.382Z,21.03
2018-09-17T09:02:14.400Z,21.11
2018-09-17T09:03:20.149Z,21.31
2018-09-17T09:04:27.278Z,21.21
2018-09-17T09:05:33.312Z,21.09
2018-09-17T09:06:39.053Z,21.14
2018-09-17T09:07:44.779Z,21.30
2018-09-17T09:08:51.703Z,21.48
2018-09-17T09:09:57.748Z,21.60
2018-09-17T09:11:03.403Z,21.64
2018-09-17T09:12:09.596Z,21.72
2018-09-17T09:13:15.583Z,21.78
2018-09-17T09:14:21.609Z,21.77
2018-09-17T09:15:27.364Z,22.05
2018-09-17T09:16:33.308Z,22.15
2018-09-17T09:17:39.231Z,22.14
2018-09-17T09:18:45.475Z,22.25
2018-09-17T09:19:51.701Z,22.13
2018-09-17T09:20:57.958Z,22.08
2018-09-17T09:22:04.271Z,22.21
2018-09-17T09:23:10.551Z,22.42
2018-09-17T09:24:16.792Z,22.40
2018-09-17T09:25:23.053Z,22.43
2018-09-17T09:26:29.018Z,22.36
2018-09-17T09:27:35.266Z,22.57
2018-09-17T09:28:41.238Z,22.70
2018-09-17T09:29:47.234Z,22.65
2018-09-17T09:30:53.195Z,22.67
2018-09-17T09:31:59.175Z,22.69
2018-09-17T09:33:05.154Z,22.87
2018-09-17T09:34:12.043Z,22.78
2018-09-17T09:35:18.024Z,22.81
2018-09-17T09:36:24.963Z,22.88
2018-09-17T09:37:31.858Z,22.79
2018-09-17T09:38:38.134Z,22.90
2018-09-17T09:39:44.347Z,22.97
2018-09-17T09:40:50.646Z,22.86
2018-09-17T09:41:56.879Z,22.92
2018-09-17T09:43:02.894Z,22.73
2018-09-17T09:44:09.821Z,22.50
2018-09-17T09:45:15.800Z,22.47
2018-09-17T09:46:22.109Z,22.58
2018-09-17T09:47:28.328Z,22.64
2018-09-17T09:48:34.569Z,22.81
2018-09-17T09:49:40.813Z,22.77
2018-09-17T09:50:47.077Z,22.65
2018-09-17T09:51:53.319Z,22.66
2018-09-17T09:52:59.321Z,22.65
2018-09-17T09:54:05.225Z,22.72
2018-09-17T09:55:11.465Z,22.81
2018-09-17T09:56:17.722Z,22.83
2018-09-17T09:57:24.863Z,22.78
2018-09-17T09:58:31.117Z,22.84
2018-09-17T09:59:37.380Z,22.88
2018-09-17T10:00:43.624Z,23.04
2018-09-17T10:01:49.363Z,23.27
2018-09-17T10:02:55.102Z,23.38
2018-09-17T10:04:01.211Z,23.17
2018-09-17T10:05:06.968Z,22.98
2018-09-17T10:06:12.962Z,22.90
2018-09-17T10:07:19.232Z,22.94
2018-09-17T10:08:25.465Z,23.00
2018-09-17T10:09:32.400Z,23.33
2018-09-17T10:10:44.247Z,23.60
2018-09-17T10:13:39.764Z,23.85
2018-09-17T10:15:13.632Z,23.68
2018-09-17T10:16:32.900Z,23.72
2018-09-17T10:17:38.891Z,23.87
2018-09-17T10:20:17.172Z,24.32
2018-09-17T10:21:23.169Z,24.22
2018-09-17T10:22:29.136Z,23.91
2018-09-17T10:23:35.117Z,23.77
2018-09-17T10:24:41.371Z,23.65
2018-09-17T10:25:47.591Z,23.72
2018-09-17T10:26:53.856Z,23.88
2018-09-17T10:27:59.792Z,24.14
2018-09-17T10:29:05.741Z,24.40
2018-09-17T10:30:11.616Z,24.47
2018-09-17T10:31:17.873Z,24.54
2018-09-17T10:32:24.123Z,24.70
2018-09-17T10:33:30.393Z,24.71
2018-09-17T10:34:36.624Z,24.70
2018-09-17T10:35:42.604Z,24.50
2018-09-17T10:36:48.882Z,24.48
2018-09-17T10:37:55.136Z,24.46
2018-09-17T10:39:01.373Z,24.18
2018-09-17T10:40:06.625Z,24.27
2018-09-17T10:41:12.582Z,24.40
2018-09-17T10:42:18.870Z,24.70
2018-09-17T10:43:25.108Z,24.81
2018-09-17T10:44:31.080Z,24.50
2018-09-17T10:45:37.287Z,24.36
2018-09-17T10:46:43.558Z,24.38
2018-09-17T10:47:49.680Z,24.49
2018-09-17T10:48:56.529Z,24.66
2018-09-17T10:50:02.505Z,24.85
2018-09-17T10:51:08.461Z,25.03
2018-09-17T10:52:14.776Z,25.14
2018-09-17T10:53:20.740Z,25.29
2018-09-17T10:54:26.699Z,25.15
2018-09-17T10:55:32.961Z,25.18
2018-09-17T10:56:39.217Z,25.10
2018-09-17T10:57:45.485Z,25.30
2018-09-17T10:58:51.440Z,25.18
2018-09-17T10:59:57.387Z,25.05
2018-09-17T11:01:03.399Z,25.09
2018-09-17T11:02:09.368Z,25.18
2018-09-17T11:03:15.622Z,25.18
2018-09-17T11:04:21.918Z,25.18
2018-09-17T11:05:28.172Z,25.26
2018-09-17T11:06:33.828Z,25.38
2018-09-17T11:07:39.796Z,25.06
2018-09-17T11:08:45.741Z,25.16
2018-09-17T11:09:51.408Z,25.25
2018-09-17T11:10:57.070Z,25.31
2018-09-17T11:12:02.757Z,25.30
2018-09-17T11:13:08.697Z,25.36
2018-09-17T11:14:14.677Z,25.62
2018-09-17T11:15:20.969Z,25.44
2018-09-17T11:16:27.195Z,25.34
2018-09-17T11:17:33.190Z,25.56
2018-09-17T11:18:39.365Z,25.84
2018-09-17T11:19:45.063Z,25.82
2018-09-17T11:20:50.996Z,26.16
2018-09-17T11:21:56.678Z,26.33
2018-09-17T11:23:02.651Z,26.35
2018-09-17T11:24:08.605Z,26.31
2018-09-17T11:25:14.325Z,26.20
2018-09-17T11:26:21.392Z,26.05
2018-09-17T11:27:27.376Z,25.86
2018-09-17T11:28:33.350Z,25.68
2018-09-17T11:29:39.284Z,25.61
2018-09-17T11:30:44.986Z,25.80
2018-09-17T11:31:50.643Z,26.10
2018-09-17T11:32:56.605Z,26.09
2018-09-17T11:34:02.574Z,25.81
2018-09-17T11:35:08.226Z,26.03
2018-09-17T11:36:14.161Z,26.45
2018-09-17T11:37:20.131Z,26.79
2018-09-17T11:38:26.381Z,26.81
2018-09-17T11:39:31.741Z,27.00
2018-09-17T11:40:37.416Z,26.87
2018-09-17T11:41:43.059Z,27.00
2018-09-17T11:42:48.773Z,27.13
2018-09-17T11:43:54.739Z,27.16
2018-09-17T11:45:00.701Z,27.19
2018-09-17T11:46:06.890Z,27.00
2018-09-17T11:47:12.578Z,27.00
2018-09-17T11:48:18.267Z,27.06
2018-09-17T11:49:24.151Z,26.96
2018-09-17T11:50:29.771Z,27.06
2018-09-17T11:51:35.454Z,26.95
2018-09-17T11:52:41.161Z,26.40
2018-09-17T11:53:47.120Z,26.35
2018-09-17T11:54:52.782Z,26.67
2018-09-17T11:55:58.737Z,26.58
2018-09-17T11:57:04.695Z,26.23
2018-09-17T11:58:10.699Z,25.96
2018-09-17T11:59:16.693Z,25.88
2018-09-17T12:00:22.407Z,25.80
2018-09-17T12:01:28.137Z,25.93
2018-09-17T12:02:33.841Z,26.14
2018-09-17T12:03:39.570Z,26.58
2018-09-17T12:04:46.211Z,27.07
2018-09-17T12:05:51.947Z,27.11
2018-09-17T12:06:57.378Z,26.92
2018-09-17T12:08:02.819Z,26.98
2018-09-17T12:09:08.818Z,27.21
2018-09-17T12:10:15.598Z,27.25
2018-09-17T12:11:21.486Z,27.41
2018-09-17T12:12:27.384Z,27.31
2018-09-17T12:13:33.359Z,27.43
2018-09-17T12:14:39.293Z,27.58
2018-09-17T12:15:45.256Z,27.46
2018-09-17T12:16:51.192Z,27.14
2018-09-17T12:17:56.889Z,26.66
2018-09-17T12:19:03.138Z,26.72
2018-09-17T12:20:08.481Z,26.88
2018-09-17T12:21:14.148Z,27.25
2018-09-17T12:22:20.100Z,27.74
2018-09-17T12:23:26.077Z,27.59
2018-09-17T12:24:32.037Z,27.85
2018-09-17T12:25:37.975Z,27.71
2018-09-17T12:26:43.865Z,27.11
2018-09-17T12:27:49.825Z,27.33
2018-09-17T12:28:56.462Z,27.53
2018-09-17T12:30:02.425Z,27.49
2018-09-17T12:31:08.398Z,27.55
2018-09-17T12:32:14.350Z,27.80
2018-09-17T12:33:20.316Z,27.91
2018-09-17T12:34:26.287Z,28.11
2018-09-17T12:35:32.292Z,27.84
2018-09-17T12:36:38.225Z,28.06
2018-09-17T12:37:44.166Z,28.17
2018-09-17T12:38:50.140Z,28.29
2018-09-17T12:39:55.808Z,28.23
2018-09-17T12:41:01.491Z,28.07
2018-09-17T12:42:06.483Z,28.13
2018-09-17T12:43:12.144Z,28.14
2018-09-17T12:44:17.876Z,27.76
2018-09-17T12:45:23.860Z,27.86
2018-09-17T12:46:29.503Z,28.26
2018-09-17T12:47:35.148Z,28.14
2018-09-17T12:48:40.811Z,28.23
2018-09-17T12:49:46.462Z,28.48
2018-09-17T12:50:52.428Z,28.33
2018-09-17T12:51:58.359Z,28.36
2018-09-17T12:53:04.039Z,28.52
2018-09-17T12:54:09.759Z,28.54
2018-09-17T12:55:15.340Z,28.64
2018-09-17T12:56:21.274Z,28.37
2018-09-17T12:57:27.197Z,28.26
2018-09-17T12:58:33.170Z,28.45
2018-09-17T12:59:38.849Z,28.72
2018-09-17T13:00:44.811Z,28.72
2018-09-17T13:01:50.475Z,28.70
2018-09-17T13:02:56.173Z,28.78
2018-09-17T13:04:01.883Z,28.95
2018-09-17T13:05:07.502Z,28.76
2018-09-17T13:06:13.442Z,28.80
2018-09-17T13:07:19.390Z,28.99
2018-09-17T13:08:25.346Z,28.66
2018-09-17T13:09:31.038Z,28.70
2018-09-17T13:10:36.704Z,28.89
2018-09-17T13:11:42.339Z,28.85
2018-09-17T13:12:48.299Z,28.95
2018-09-17T13:13:54.266Z,28.66
2018-09-17T13:14:59.937Z,28.69
2018-09-17T13:16:05.945Z,28.68
2018-09-17T13:17:11.633Z,28.68
2018-09-17T13:18:17.593Z,28.63
2018-09-17T13:19:23.275Z,28.42
2018-09-17T13:20:28.957Z,28.37
2018-09-17T13:21:34.612Z,28.42
2018-09-17T13:22:40.553Z,28.45
2018-09-17T13:23:46.487Z,28.50
2018-09-17T13:24:52.114Z,28.63
2018-09-17T13:25:58.338Z,28.51
2018-09-17T13:27:04.021Z,28.48
2018-09-17T13:28:09.980Z,28.46
2018-09-17T13:29:15.971Z,28.44
2018-09-17T13:30:21.896Z,28.20
2018-09-17T13:31:27.583Z,28.46
2018-09-17T13:32:33.264Z,28.57
2018-09-17T13:33:39.222Z,28.69
2018-09-17T13:34:44.921Z,28.65
2018-09-17T13:35:50.566Z,28.60
2018-09-17T13:36:56.291Z,28.54
2018-09-17T13:38:02.261Z,28.76
2018-09-17T13:39:07.590Z,28.87
2018-09-17T13:40:13.315Z,28.89
2018-09-17T13:41:19.322Z,29.03
2018-09-17T13:42:25.323Z,29.05
2018-09-17T13:43:31.176Z,28.96
2018-09-17T13:44:37.507Z,28.90
2018-09-17T13:45:43.582Z,28.74
2018-09-17T13:46:49.517Z,28.76
2018-09-17T13:47:55.729Z,28.58
2018-09-17T13:49:01.668Z,28.47
2018-09-17T13:50:07.524Z,28.41
2018-09-17T13:51:13.819Z,28.78
2018-09-17T13:52:19.819Z,29.03
2018-09-17T13:53:25.856Z,29.06
2018-09-17T13:54:31.641Z,28.85
2018-09-17T13:55:37.542Z,29.03
2018-09-17T13:56:43.193Z,29.07
2018-09-17T13:57:48.856Z,29.26
2018-09-17T13:58:54.471Z,29.18
2018-09-17T14:00:00.172Z,28.42
2018-09-17T14:01:06.306Z,28.11
2018-09-17T14:02:12.246Z,27.94
2018-09-17T14:03:17.972Z,28.21
2018-09-17T14:04:23.796Z,28.59
2018-09-17T14:05:29.621Z,28.93
2018-09-17T14:06:35.585Z,29.02
2018-09-17T14:07:41.263Z,29.05
2018-09-17T14:08:46.978Z,29.16
2018-09-17T14:09:52.719Z,29.27
2018-09-17T14:10:58.656Z,29.20
2018-09-17T14:12:04.606Z,29.28
2018-09-17T14:13:10.552Z,29.28
2018-09-17T14:14:16.261Z,29.44
2018-09-17T14:15:22.300Z,29.51
2018-09-17T14:16:27.965Z,29.24
2018-09-17T14:17:33.938Z,29.34
2018-09-17T14:18:39.884Z,29.11